Pagrindinis puslapis
METAR-TAF:

METAR-TAF

Oro uostai :

Futenma, Japonija

platuma: 26-16N, ilguma: 127-45E, Aukštis: 75 m

Dabartinis oras

Ataskaita buvo paskelbta 11 minutes, ne 00:56 UTC
Vėjas 11 kt iš Šiaurės Rytų
Temperatūra 20°C
Drėgmė 64%
Slėgis 1022 hPa
Matomumas 10 km arba daugiau
Mažai debesys ne aukštis 4000 ft

METAR: ROTM 100056Z 05011KT 9999 FEW040 20/13 A3019 RMK SLP213 T02030134

Laikas: 10:07 (01:07 UTC)

Prognozė

Prognozė galioja nuo 09 metu 15 UTC su 10 metu 15 UTC
Vėjas 8 kt iš Rytų/Šiaurės Rytų
Matomumas 10 km arba daugiau
Giedras dangus
Nuo 09 metu 2000 UTC
Vėjas 12 kt iš Šiaurės Rytų
Matomumas: 9000 m
Mažai debesys ne aukštis 1500 ft
migla
Nuo 10 metu 0100 UTC
Vėjas 10 kt iš Rytų/Šiaurės Rytų
Matomumas 10 km arba daugiau
Mažai debesys ne aukštis 2000 ft
Išsisklaidę debesys ne aukštis 10000 ft

TAF: ROTM 0915/1015 06008KT 9999 SKC QNH3009INS FM092000 05012KT 9000 HZ FEW015 QNH3013INS FM100100 07010KT 9999 FEW020 SCT100 QNH3011INS T16/0921Z T21/1004Z

Orai ataskaitas ir orų prognozės (METAR, TAF).

turimą stotys yra geltonos ir raudonos taškus žemėlapyje.

Perkelti pele per norėdami pamatyti stoties vardą.

Tada spustelėkite, norėdami matyti oro stebėjimo ir prognozės.

Norėdami pakeisti žemėlapį: spustelėkite ant žalios mygtukų su juodo kryžiaus žemyn,; žalią mygtuką su brūkšneliu, jei norite nutolinti; arba žalių rodyklių gretimoms žemėlapius.


METAR-TAF: